sensor_id;sensor_type;location;lat;lon;timestamp;P1;durP1;ratioP1;P2;durP2;ratioP2
24897;SDS011;12957;49.434;8.684;2022-10-30T00:02:09;14.55;;;4.13;;
24897;SDS011;12957;49.434;8.684;2022-10-30T00:04:37;10.52;;;4.03;;
24897;SDS011;12957;49.434;8.684;2022-10-30T00:07:06;14.60;;;4.28;;
24897;SDS011;12957;49.434;8.684;2022-10-30T00:09:32;13.02;;;5.28;;
24897;SDS011;12957;49.434;8.684;2022-10-30T00:12:06;15.35;;;5.22;;
24897;SDS011;12957;49.434;8.684;2022-10-30T00:14:59;12.70;;;4.63;;
24897;SDS011;12957;49.434;8.684;2022-10-30T00:17:25;14.32;;;4.05;;
24897;SDS011;12957;49.434;8.684;2022-10-30T00:19:56;8.57;;;4.45;;
24897;SDS011;12957;49.434;8.684;2022-10-30T00:22:22;13.27;;;4.38;;
24897;SDS011;12957;49.434;8.684;2022-10-30T00:27:56;10.65;;;4.03;;
24897;SDS011;12957;49.434;8.684;2022-10-30T00:30:23;10.32;;;4.03;;
24897;SDS011;12957;49.434;8.684;2022-10-30T00:33:09;15.20;;;4.07;;
24897;SDS011;12957;49.434;8.684;2022-10-30T00:35:46;10.63;;;3.67;;
24897;SDS011;12957;49.434;8.684;2022-10-30T00:38:12;10.27;;;4.10;;
24897;SDS011;12957;49.434;8.684;2022-10-30T00:40:38;19.52;;;4.28;;
24897;SDS011;12957;49.434;8.684;2022-10-30T00:49:03;13.35;;;4.32;;
24897;SDS011;12957;49.434;8.684;2022-10-30T00:51:44;13.75;;;4.22;;
24897;SDS011;12957;49.434;8.684;2022-10-30T00:54:13;17.65;;;4.82;;
24897;SDS011;12957;49.434;8.684;2022-10-30T00:56:46;12.80;;;4.32;;
24897;SDS011;12957;49.434;8.684;2022-10-30T00:59:18;21.35;;;4.20;;
24897;SDS011;12957;49.434;8.684;2022-10-30T01:01:49;11.52;;;4.53;;
24897;SDS011;12957;49.434;8.684;2022-10-30T01:04:21;11.88;;;4.07;;
24897;SDS011;12957;49.434;8.684;2022-10-30T01:07:10;15.75;;;4.28;;
24897;SDS011;12957;49.434;8.684;2022-10-30T01:09:42;13.10;;;4.55;;
24897;SDS011;12957;49.434;8.684;2022-10-30T01:12:13;18.52;;;4.53;;
24897;SDS011;12957;49.434;8.684;2022-10-30T01:14:42;15.88;;;4.53;;
24897;SDS011;12957;49.434;8.684;2022-10-30T01:24:01;11.05;;;4.00;;
24897;SDS011;12957;49.434;8.684;2022-10-30T01:38:03;12.88;;;4.00;;
24897;SDS011;12957;49.434;8.684;2022-10-30T01:40:34;14.75;;;4.07;;
24897;SDS011;12957;49.434;8.684;2022-10-30T01:43:00;11.73;;;4.07;;
24897;SDS011;12957;49.434;8.684;2022-10-30T01:58:56;14.15;;;4.43;;
24897;SDS011;12957;49.434;8.684;2022-10-30T02:01:28;14.38;;;4.55;;
24897;SDS011;12957;49.434;8.684;2022-10-30T02:03:55;9.55;;;4.00;;
24897;SDS011;12957;49.434;8.684;2022-10-30T02:06:21;11.65;;;4.20;;
24897;SDS011;12957;49.434;8.684;2022-10-30T02:08:46;11.02;;;4.00;;
24897;SDS011;12957;49.434;8.684;2022-10-30T02:11:12;18.38;;;4.50;;
24897;SDS011;12957;49.434;8.684;2022-10-30T02:13:37;14.68;;;4.25;;
24897;SDS011;12957;49.434;8.684;2022-10-30T02:16:03;11.45;;;4.40;;
24897;SDS011;12957;49.434;8.684;2022-10-30T02:18:29;13.07;;;4.53;;
24897;SDS011;12957;49.434;8.684;2022-10-30T02:20:54;12.18;;;4.28;;
24897;SDS011;12957;49.434;8.684;2022-10-30T02:23:20;17.90;;;4.15;;
24897;SDS011;12957;49.434;8.684;2022-10-30T02:25:46;17.38;;;4.47;;
24897;SDS011;12957;49.434;8.684;2022-10-30T02:28:12;13.32;;;4.15;;
24897;SDS011;12957;49.434;8.684;2022-10-30T02:30:37;15.48;;;4.25;;
24897;SDS011;12957;49.434;8.684;2022-10-30T02:33:03;13.38;;;3.90;;
24897;SDS011;12957;49.434;8.684;2022-10-30T02:35:29;17.35;;;4.43;;
24897;SDS011;12957;49.434;8.684;2022-10-30T02:37:59;9.32;;;4.05;;
24897;SDS011;12957;49.434;8.684;2022-10-30T02:40:25;10.45;;;4.18;;
24897;SDS011;12957;49.434;8.684;2022-10-30T02:42:52;22.85;;;4.88;;
24897;SDS011;12957;49.434;8.684;2022-10-30T02:45:18;13.80;;;4.30;;
24897;SDS011;12957;49.434;8.684;2022-10-30T02:47:46;13.82;;;4.40;;
24897;SDS011;12957;49.434;8.684;2022-10-30T02:50:12;15.88;;;4.57;;
24897;SDS011;12957;49.434;8.684;2022-10-30T02:52:38;16.23;;;4.40;;
24897;SDS011;12957;49.434;8.684;2022-10-30T02:55:04;11.23;;;4.18;;
24897;SDS011;12957;49.434;8.684;2022-10-30T02:57:29;14.40;;;3.90;;
24897;SDS011;12957;49.434;8.684;2022-10-30T02:59:56;9.20;;;4.07;;
24897;SDS011;12957;49.434;8.684;2022-10-30T03:02:21;16.77;;;4.20;;
24897;SDS011;12957;49.434;8.684;2022-10-30T03:04:47;14.68;;;3.95;;
24897;SDS011;12957;49.434;8.684;2022-10-30T03:07:12;10.43;;;4.10;;
24897;SDS011;12957;49.434;8.684;2022-10-30T03:09:38;17.38;;;4.28;;
24897;SDS011;12957;49.434;8.684;2022-10-30T03:12:04;15.88;;;4.25;;
24897;SDS011;12957;49.434;8.684;2022-10-30T03:14:29;15.77;;;4.07;;
24897;SDS011;12957;49.434;8.684;2022-10-30T03:16:55;12.20;;;3.92;;
24897;SDS011;12957;49.434;8.684;2022-10-30T03:19:20;15.18;;;4.32;;
24897;SDS011;12957;49.434;8.684;2022-10-30T03:21:46;18.10;;;4.10;;
24897;SDS011;12957;49.434;8.684;2022-10-30T03:24:11;17.88;;;4.68;;
24897;SDS011;12957;49.434;8.684;2022-10-30T03:26:37;11.63;;;4.13;;
24897;SDS011;12957;49.434;8.684;2022-10-30T03:29:02;16.90;;;4.70;;
24897;SDS011;12957;49.434;8.684;2022-10-30T03:31:29;15.15;;;4.65;;
24897;SDS011;12957;49.434;8.684;2022-10-30T03:33:55;17.05;;;4.55;;
24897;SDS011;12957;49.434;8.684;2022-10-30T03:36:20;20.58;;;4.43;;
24897;SDS011;12957;49.434;8.684;2022-10-30T03:38:46;9.85;;;3.63;;
24897;SDS011;12957;49.434;8.684;2022-10-30T03:41:11;11.85;;;4.00;;
24897;SDS011;12957;49.434;8.684;2022-10-30T03:43:37;14.20;;;4.25;;
24897;SDS011;12957;49.434;8.684;2022-10-30T03:46:02;21.73;;;4.05;;
24897;SDS011;12957;49.434;8.684;2022-10-30T03:48:29;9.88;;;3.58;;
24897;SDS011;12957;49.434;8.684;2022-10-30T03:50:56;19.83;;;4.32;;
24897;SDS011;12957;49.434;8.684;2022-10-30T03:53:23;17.77;;;4.13;;
24897;SDS011;12957;49.434;8.684;2022-10-30T03:55:50;15.88;;;3.97;;
24897;SDS011;12957;49.434;8.684;2022-10-30T03:58:16;12.82;;;4.20;;
24897;SDS011;12957;49.434;8.684;2022-10-30T04:00:41;13.73;;;4.45;;
24897;SDS011;12957;49.434;8.684;2022-10-30T04:03:07;14.38;;;4.28;;
24897;SDS011;12957;49.434;8.684;2022-10-30T04:05:33;15.15;;;3.90;;
24897;SDS011;12957;49.434;8.684;2022-10-30T04:08:00;18.35;;;4.53;;
24897;SDS011;12957;49.434;8.684;2022-10-30T04:10:27;12.05;;;4.00;;
24897;SDS011;12957;49.434;8.684;2022-10-30T04:13:00;19.85;;;4.68;;
24897;SDS011;12957;49.434;8.684;2022-10-30T04:15:26;18.38;;;4.63;;
24897;SDS011;12957;49.434;8.684;2022-10-30T04:17:52;12.52;;;4.53;;
24897;SDS011;12957;49.434;8.684;2022-10-30T04:20:18;15.52;;;4.43;;
24897;SDS011;12957;49.434;8.684;2022-10-30T04:22:44;11.52;;;3.97;;
24897;SDS011;12957;49.434;8.684;2022-10-30T04:25:10;16.92;;;4.15;;
24897;SDS011;12957;49.434;8.684;2022-10-30T04:27:42;9.82;;;3.92;;
24897;SDS011;12957;49.434;8.684;2022-10-30T04:30:09;16.20;;;4.22;;
24897;SDS011;12957;49.434;8.684;2022-10-30T04:32:35;12.05;;;4.22;;
24897;SDS011;12957;49.434;8.684;2022-10-30T04:35:02;14.05;;;4.30;;
24897;SDS011;12957;49.434;8.684;2022-10-30T04:37:28;11.18;;;3.83;;
24897;SDS011;12957;49.434;8.684;2022-10-30T04:39:54;11.13;;;3.92;;
24897;SDS011;12957;49.434;8.684;2022-10-30T04:42:20;13.38;;;4.20;;
24897;SDS011;12957;49.434;8.684;2022-10-30T04:44:45;14.80;;;4.25;;
24897;SDS011;12957;49.434;8.684;2022-10-30T04:47:11;26.50;;;4.93;;
24897;SDS011;12957;49.434;8.684;2022-10-30T04:49:36;13.80;;;4.40;;
24897;SDS011;12957;49.434;8.684;2022-10-30T04:52:02;13.70;;;4.15;;
24897;SDS011;12957;49.434;8.684;2022-10-30T04:54:27;15.57;;;4.20;;
24897;SDS011;12957;49.434;8.684;2022-10-30T04:56:53;11.02;;;4.40;;
24897;SDS011;12957;49.434;8.684;2022-10-30T04:59:19;15.95;;;4.15;;
24897;SDS011;12957;49.434;8.684;2022-10-30T05:01:44;15.43;;;4.78;;
24897;SDS011;12957;49.434;8.684;2022-10-30T05:04:10;17.05;;;4.55;;
24897;SDS011;12957;49.434;8.684;2022-10-30T05:06:35;9.27;;;3.85;;
24897;SDS011;12957;49.434;8.684;2022-10-30T05:09:01;15.15;;;4.18;;
24897;SDS011;12957;49.434;8.684;2022-10-30T05:11:27;12.80;;;4.22;;
24897;SDS011;12957;49.434;8.684;2022-10-30T05:13:52;15.82;;;4.82;;
24897;SDS011;12957;49.434;8.684;2022-10-30T05:16:18;8.43;;;4.03;;
24897;SDS011;12957;49.434;8.684;2022-10-30T05:18:43;11.93;;;4.28;;
24897;SDS011;12957;49.434;8.684;2022-10-30T05:21:09;15.73;;;4.43;;
24897;SDS011;12957;49.434;8.684;2022-10-30T05:23:34;21.75;;;4.13;;
24897;SDS011;12957;49.434;8.684;2022-10-30T05:26:00;17.08;;;4.72;;
24897;SDS011;12957;49.434;8.684;2022-10-30T05:28:26;14.35;;;4.47;;
24897;SDS011;12957;49.434;8.684;2022-10-30T05:30:52;12.73;;;4.22;;
24897;SDS011;12957;49.434;8.684;2022-10-30T05:33:18;17.00;;;4.35;;
24897;SDS011;12957;49.434;8.684;2022-10-30T05:35:43;11.55;;;4.30;;
24897;SDS011;12957;49.434;8.684;2022-10-30T05:38:09;19.60;;;4.50;;
24897;SDS011;12957;49.434;8.684;2022-10-30T05:40:34;19.88;;;4.43;;
24897;SDS011;12957;49.434;8.684;2022-10-30T05:43:02;11.98;;;3.97;;
24897;SDS011;12957;49.434;8.684;2022-10-30T05:45:28;10.95;;;4.65;;
24897;SDS011;12957;49.434;8.684;2022-10-30T05:48:01;11.80;;;4.18;;
24897;SDS011;12957;49.434;8.684;2022-10-30T05:50:28;11.02;;;4.20;;
24897;SDS011;12957;49.434;8.684;2022-10-30T05:53:01;18.77;;;5.07;;
24897;SDS011;12957;49.434;8.684;2022-10-30T05:55:28;11.55;;;4.35;;
24897;SDS011;12957;49.434;8.684;2022-10-30T05:57:57;11.07;;;4.40;;
24897;SDS011;12957;49.434;8.684;2022-10-30T06:00:24;8.27;;;3.72;;
24897;SDS011;12957;49.434;8.684;2022-10-30T06:02:50;12.88;;;4.25;;
24897;SDS011;12957;49.434;8.684;2022-10-30T06:05:15;18.08;;;5.18;;
24897;SDS011;12957;49.434;8.684;2022-10-30T06:07:41;12.20;;;4.72;;
24897;SDS011;12957;49.434;8.684;2022-10-30T06:10:07;11.38;;;4.47;;
24897;SDS011;12957;49.434;8.684;2022-10-30T06:12:33;14.65;;;4.57;;
24897;SDS011;12957;49.434;8.684;2022-10-30T06:14:58;12.63;;;4.72;;
24897;SDS011;12957;49.434;8.684;2022-10-30T06:17:24;14.70;;;4.85;;
24897;SDS011;12957;49.434;8.684;2022-10-30T06:19:49;15.32;;;5.38;;
24897;SDS011;12957;49.434;8.684;2022-10-30T06:22:15;12.10;;;5.28;;
24897;SDS011;12957;49.434;8.684;2022-10-30T06:24:40;15.23;;;4.57;;
24897;SDS011;12957;49.434;8.684;2022-10-30T06:27:06;17.90;;;4.57;;
24897;SDS011;12957;49.434;8.684;2022-10-30T06:29:32;15.57;;;4.80;;
24897;SDS011;12957;49.434;8.684;2022-10-30T06:31:57;13.25;;;5.00;;
24897;SDS011;12957;49.434;8.684;2022-10-30T06:34:23;12.90;;;4.95;;
24897;SDS011;12957;49.434;8.684;2022-10-30T06:36:49;17.83;;;5.30;;
24897;SDS011;12957;49.434;8.684;2022-10-30T06:39:15;9.55;;;4.63;;
24897;SDS011;12957;49.434;8.684;2022-10-30T06:41:41;13.52;;;5.20;;
24897;SDS011;12957;49.434;8.684;2022-10-30T06:44:06;11.27;;;4.32;;
24897;SDS011;12957;49.434;8.684;2022-10-30T06:46:32;19.42;;;5.03;;
24897;SDS011;12957;49.434;8.684;2022-10-30T06:48:57;12.65;;;5.43;;
24897;SDS011;12957;49.434;8.684;2022-10-30T06:51:23;14.90;;;4.97;;
24897;SDS011;12957;49.434;8.684;2022-10-30T06:53:48;15.75;;;5.15;;
24897;SDS011;12957;49.434;8.684;2022-10-30T06:56:14;9.15;;;4.50;;
24897;SDS011;12957;49.434;8.684;2022-10-30T06:58:39;19.52;;;4.75;;
24897;SDS011;12957;49.434;8.684;2022-10-30T07:01:06;14.30;;;4.75;;
24897;SDS011;12957;49.434;8.684;2022-10-30T07:03:36;15.50;;;5.05;;
24897;SDS011;12957;49.434;8.684;2022-10-30T07:06:02;17.15;;;4.38;;
24897;SDS011;12957;49.434;8.684;2022-10-30T07:08:28;11.15;;;4.53;;
24897;SDS011;12957;49.434;8.684;2022-10-30T07:10:55;15.93;;;4.40;;
24897;SDS011;12957;49.434;8.684;2022-10-30T07:13:20;11.40;;;5.10;;
24897;SDS011;12957;49.434;8.684;2022-10-30T07:15:46;19.15;;;4.80;;
24897;SDS011;12957;49.434;8.684;2022-10-30T07:18:11;17.27;;;5.88;;
24897;SDS011;12957;49.434;8.684;2022-10-30T07:20:37;15.63;;;4.88;;
24897;SDS011;12957;49.434;8.684;2022-10-30T07:23:03;15.68;;;4.25;;
24897;SDS011;12957;49.434;8.684;2022-10-30T07:25:28;16.92;;;4.38;;
24897;SDS011;12957;49.434;8.684;2022-10-30T07:27:54;10.63;;;4.75;;
24897;SDS011;12957;49.434;8.684;2022-10-30T07:30:22;15.20;;;4.63;;
24897;SDS011;12957;49.434;8.684;2022-10-30T07:33:02;15.90;;;5.03;;
24897;SDS011;12957;49.434;8.684;2022-10-30T07:35:28;11.93;;;4.50;;
24897;SDS011;12957;49.434;8.684;2022-10-30T07:37:54;19.02;;;4.53;;
24897;SDS011;12957;49.434;8.684;2022-10-30T07:40:20;15.93;;;4.57;;
24897;SDS011;12957;49.434;8.684;2022-10-30T07:42:46;12.65;;;4.85;;
24897;SDS011;12957;49.434;8.684;2022-10-30T07:45:11;13.73;;;4.43;;
24897;SDS011;12957;49.434;8.684;2022-10-30T07:47:40;19.40;;;4.68;;
24897;SDS011;12957;49.434;8.684;2022-10-30T07:50:06;20.33;;;4.93;;
24897;SDS011;12957;49.434;8.684;2022-10-30T07:52:32;11.63;;;4.03;;
24897;SDS011;12957;49.434;8.684;2022-10-30T07:54:58;13.77;;;4.65;;
24897;SDS011;12957;49.434;8.684;2022-10-30T07:57:23;11.75;;;4.10;;
24897;SDS011;12957;49.434;8.684;2022-10-30T07:59:49;12.68;;;4.28;;
24897;SDS011;12957;49.434;8.684;2022-10-30T08:02:14;14.40;;;4.43;;
24897;SDS011;12957;49.434;8.684;2022-10-30T08:04:40;18.13;;;4.45;;
24897;SDS011;12957;49.434;8.684;2022-10-30T08:07:05;13.30;;;4.00;;
24897;SDS011;12957;49.434;8.684;2022-10-30T08:09:31;15.13;;;4.35;;
24897;SDS011;12957;49.434;8.684;2022-10-30T08:11:57;10.68;;;4.40;;
24897;SDS011;12957;49.434;8.684;2022-10-30T08:14:22;18.27;;;4.90;;
24897;SDS011;12957;49.434;8.684;2022-10-30T08:16:49;14.73;;;4.65;;
24897;SDS011;12957;49.434;8.684;2022-10-30T08:19:14;16.50;;;4.88;;
24897;SDS011;12957;49.434;8.684;2022-10-30T08:21:40;10.40;;;4.53;;
24897;SDS011;12957;49.434;8.684;2022-10-30T08:24:05;16.02;;;4.10;;
24897;SDS011;12957;49.434;8.684;2022-10-30T08:26:31;8.98;;;4.03;;
24897;SDS011;12957;49.434;8.684;2022-10-30T08:28:57;6.65;;;3.92;;
24897;SDS011;12957;49.434;8.684;2022-10-30T08:31:22;5.55;;;3.92;;
24897;SDS011;12957;49.434;8.684;2022-10-30T08:33:48;13.57;;;4.55;;
24897;SDS011;12957;49.434;8.684;2022-10-30T08:36:13;14.75;;;4.20;;
24897;SDS011;12957;49.434;8.684;2022-10-30T08:38:39;8.20;;;3.80;;
24897;SDS011;12957;49.434;8.684;2022-10-30T08:41:04;9.27;;;3.80;;
24897;SDS011;12957;49.434;8.684;2022-10-30T08:43:32;8.02;;;4.15;;
24897;SDS011;12957;49.434;8.684;2022-10-30T08:45:58;9.15;;;4.05;;
24897;SDS011;12957;49.434;8.684;2022-10-30T08:48:26;12.07;;;3.85;;
24897;SDS011;12957;49.434;8.684;2022-10-30T08:50:51;16.25;;;4.80;;
24897;SDS011;12957;49.434;8.684;2022-10-30T08:53:18;12.82;;;3.92;;
24897;SDS011;12957;49.434;8.684;2022-10-30T08:55:44;10.48;;;4.50;;
24897;SDS011;12957;49.434;8.684;2022-10-30T08:58:09;9.73;;;4.57;;
24897;SDS011;12957;49.434;8.684;2022-10-30T09:00:35;10.55;;;5.05;;
24897;SDS011;12957;49.434;8.684;2022-10-30T09:03:00;11.85;;;4.82;;
24897;SDS011;12957;49.434;8.684;2022-10-30T09:05:26;10.77;;;4.60;;
24897;SDS011;12957;49.434;8.684;2022-10-30T09:07:58;11.38;;;4.80;;
24897;SDS011;12957;49.434;8.684;2022-10-30T09:10:25;10.80;;;3.78;;
24897;SDS011;12957;49.434;8.684;2022-10-30T09:12:54;12.27;;;4.20;;
24897;SDS011;12957;49.434;8.684;2022-10-30T09:15:23;8.45;;;4.40;;
24897;SDS011;12957;49.434;8.684;2022-10-30T09:17:55;8.73;;;4.70;;
24897;SDS011;12957;49.434;8.684;2022-10-30T09:20:21;9.82;;;4.20;;
24897;SDS011;12957;49.434;8.684;2022-10-30T09:22:46;8.38;;;3.80;;
24897;SDS011;12957;49.434;8.684;2022-10-30T09:25:12;13.20;;;4.53;;
24897;SDS011;12957;49.434;8.684;2022-10-30T09:27:38;10.88;;;4.50;;
24897;SDS011;12957;49.434;8.684;2022-10-30T09:30:03;11.30;;;4.22;;
24897;SDS011;12957;49.434;8.684;2022-10-30T09:32:29;8.25;;;3.92;;
24897;SDS011;12957;49.434;8.684;2022-10-30T09:34:55;7.85;;;4.28;;
24897;SDS011;12957;49.434;8.684;2022-10-30T09:37:21;11.05;;;4.00;;
24897;SDS011;12957;49.434;8.684;2022-10-30T09:39:48;9.98;;;4.15;;
24897;SDS011;12957;49.434;8.684;2022-10-30T09:53:01;12.68;;;4.57;;
24897;SDS011;12957;49.434;8.684;2022-10-30T10:00:49;11.55;;;4.75;;
24897;SDS011;12957;49.434;8.684;2022-10-30T10:06:10;9.00;;;3.78;;
24897;SDS011;12957;49.434;8.684;2022-10-30T10:08:41;12.05;;;3.97;;
24897;SDS011;12957;49.434;8.684;2022-10-30T10:14:08;10.77;;;3.70;;
24897;SDS011;12957;49.434;8.684;2022-10-30T10:16:39;11.30;;;4.30;;
24897;SDS011;12957;49.434;8.684;2022-10-30T10:19:13;11.32;;;4.43;;
24897;SDS011;12957;49.434;8.684;2022-10-30T10:21:43;9.60;;;4.15;;
24897;SDS011;12957;49.434;8.684;2022-10-30T10:24:33;13.77;;;4.40;;
24897;SDS011;12957;49.434;8.684;2022-10-30T10:45:54;15.07;;;4.78;;
24897;SDS011;12957;49.434;8.684;2022-10-30T10:48:46;16.52;;;4.90;;
24897;SDS011;12957;49.434;8.684;2022-10-30T10:51:23;9.35;;;4.35;;
24897;SDS011;12957;49.434;8.684;2022-10-30T10:53:58;15.07;;;4.90;;
24897;SDS011;12957;49.434;8.684;2022-10-30T10:56:36;16.23;;;5.05;;
24897;SDS011;12957;49.434;8.684;2022-10-30T11:04:54;14.75;;;4.95;;
24897;SDS011;12957;49.434;8.684;2022-10-30T11:07:27;16.30;;;5.63;;
24897;SDS011;12957;49.434;8.684;2022-10-30T11:09:55;16.73;;;4.70;;
24897;SDS011;12957;49.434;8.684;2022-10-30T11:12:26;21.10;;;5.60;;
24897;SDS011;12957;49.434;8.684;2022-10-30T11:14:52;14.57;;;5.50;;
24897;SDS011;12957;49.434;8.684;2022-10-30T11:19:50;14.50;;;4.57;;
24897;SDS011;12957;49.434;8.684;2022-10-30T11:22:29;13.32;;;4.38;;
24897;SDS011;12957;49.434;8.684;2022-10-30T11:25:06;15.45;;;4.78;;
24897;SDS011;12957;49.434;8.684;2022-10-30T11:27:43;11.85;;;4.82;;
24897;SDS011;12957;49.434;8.684;2022-10-30T11:30:19;15.55;;;4.45;;
24897;SDS011;12957;49.434;8.684;2022-10-30T11:32:46;14.02;;;4.85;;
24897;SDS011;12957;49.434;8.684;2022-10-30T11:35:12;17.60;;;4.60;;
24897;SDS011;12957;49.434;8.684;2022-10-30T11:37:39;14.68;;;4.20;;
24897;SDS011;12957;49.434;8.684;2022-10-30T11:42:32;15.93;;;4.30;;
24897;SDS011;12957;49.434;8.684;2022-10-30T11:44:58;13.38;;;4.30;;
24897;SDS011;12957;49.434;8.684;2022-10-30T11:47:31;15.82;;;4.40;;
24897;SDS011;12957;49.434;8.684;2022-10-30T11:49:59;12.77;;;4.32;;
24897;SDS011;12957;49.434;8.684;2022-10-30T11:52:49;14.10;;;4.03;;
24897;SDS011;12957;49.434;8.684;2022-10-30T11:57:57;19.35;;;4.63;;
24897;SDS011;12957;49.434;8.684;2022-10-30T12:00:24;18.90;;;5.05;;
24897;SDS011;12957;49.434;8.684;2022-10-30T12:02:51;7.15;;;3.75;;
24897;SDS011;12957;49.434;8.684;2022-10-30T12:13:14;10.18;;;4.00;;
24897;SDS011;12957;49.434;8.684;2022-10-30T12:15:41;11.55;;;4.32;;
24897;SDS011;12957;49.434;8.684;2022-10-30T12:18:07;11.27;;;3.95;;
24897;SDS011;12957;49.434;8.684;2022-10-30T12:21:00;9.30;;;3.63;;
24897;SDS011;12957;49.434;8.684;2022-10-30T12:23:26;7.57;;;3.10;;
24897;SDS011;12957;49.434;8.684;2022-10-30T12:25:53;11.65;;;3.72;;
24897;SDS011;12957;49.434;8.684;2022-10-30T12:28:21;9.10;;;3.20;;
24897;SDS011;12957;49.434;8.684;2022-10-30T12:30:52;10.85;;;3.30;;
24897;SDS011;12957;49.434;8.684;2022-10-30T12:33:23;14.95;;;3.67;;
24897;SDS011;12957;49.434;8.684;2022-10-30T12:35:54;10.77;;;3.25;;
24897;SDS011;12957;49.434;8.684;2022-10-30T12:40:55;6.95;;;3.00;;
24897;SDS011;12957;49.434;8.684;2022-10-30T12:43:41;6.30;;;2.78;;
24897;SDS011;12957;49.434;8.684;2022-10-30T12:46:22;10.65;;;3.70;;
24897;SDS011;12957;49.434;8.684;2022-10-30T12:48:52;11.88;;;3.30;;
24897;SDS011;12957;49.434;8.684;2022-10-30T12:51:33;15.50;;;3.78;;
24897;SDS011;12957;49.434;8.684;2022-10-30T12:54:06;9.95;;;3.08;;
24897;SDS011;12957;49.434;8.684;2022-10-30T12:56:35;15.18;;;3.63;;
24897;SDS011;12957;49.434;8.684;2022-10-30T13:04:17;9.65;;;2.95;;
24897;SDS011;12957;49.434;8.684;2022-10-30T13:12:22;7.53;;;2.85;;
24897;SDS011;12957;49.434;8.684;2022-10-30T13:14:53;14.02;;;3.10;;
24897;SDS011;12957;49.434;8.684;2022-10-30T13:17:22;6.28;;;2.58;;
24897;SDS011;12957;49.434;8.684;2022-10-30T13:19:48;9.05;;;2.92;;
24897;SDS011;12957;49.434;8.684;2022-10-30T13:25:53;9.00;;;2.97;;
24897;SDS011;12957;49.434;8.684;2022-10-30T13:30:17;13.23;;;3.17;;
24897;SDS011;12957;49.434;8.684;2022-10-30T13:44:21;14.15;;;3.42;;
24897;SDS011;12957;49.434;8.684;2022-10-30T13:47:14;9.30;;;3.50;;
24897;SDS011;12957;49.434;8.684;2022-10-30T13:52:29;8.15;;;4.03;;
24897;SDS011;12957;49.434;8.684;2022-10-30T13:57:38;6.30;;;3.85;;
24897;SDS011;12957;49.434;8.684;2022-10-30T14:00:15;13.23;;;3.72;;
24897;SDS011;12957;49.434;8.684;2022-10-30T14:05:35;14.82;;;4.60;;
24897;SDS011;12957;49.434;8.684;2022-10-30T14:11:05;10.30;;;4.00;;
24897;SDS011;12957;49.434;8.684;2022-10-30T14:16:00;8.43;;;3.83;;
24897;SDS011;12957;49.434;8.684;2022-10-30T14:18:29;15.75;;;4.13;;
24897;SDS011;12957;49.434;8.684;2022-10-30T14:24:11;7.72;;;3.80;;
24897;SDS011;12957;49.434;8.684;2022-10-30T14:26:39;12.57;;;3.80;;
24897;SDS011;12957;49.434;8.684;2022-10-30T14:31:57;10.60;;;4.05;;
24897;SDS011;12957;49.434;8.684;2022-10-30T14:39:55;15.40;;;4.40;;
24897;SDS011;12957;49.434;8.684;2022-10-30T14:42:27;7.45;;;4.00;;
24897;SDS011;12957;49.434;8.684;2022-10-30T14:45:07;9.82;;;3.70;;
24897;SDS011;12957;49.434;8.684;2022-10-30T14:55:37;6.68;;;3.67;;
24897;SDS011;12957;49.434;8.684;2022-10-30T14:58:26;9.13;;;3.80;;
24897;SDS011;12957;49.434;8.684;2022-10-30T15:07:04;8.15;;;2.88;;
24897;SDS011;12957;49.434;8.684;2022-10-30T15:10:34;14.32;;;4.15;;
24897;SDS011;12957;49.434;8.684;2022-10-30T15:15:36;10.23;;;3.30;;
24897;SDS011;12957;49.434;8.684;2022-10-30T15:18:06;9.82;;;3.13;;
24897;SDS011;12957;49.434;8.684;2022-10-30T15:20:33;11.52;;;4.05;;
24897;SDS011;12957;49.434;8.684;2022-10-30T15:23:02;15.80;;;3.53;;
24897;SDS011;12957;49.434;8.684;2022-10-30T15:25:52;9.25;;;3.80;;
24897;SDS011;12957;49.434;8.684;2022-10-30T15:28:21;10.60;;;3.35;;
24897;SDS011;12957;49.434;8.684;2022-10-30T15:33:29;12.35;;;3.30;;
24897;SDS011;12957;49.434;8.684;2022-10-30T15:35:56;5.43;;;2.88;;
24897;SDS011;12957;49.434;8.684;2022-10-30T15:38:25;8.77;;;3.03;;
24897;SDS011;12957;49.434;8.684;2022-10-30T15:40:54;7.50;;;2.83;;
24897;SDS011;12957;49.434;8.684;2022-10-30T15:43:21;7.55;;;3.10;;
24897;SDS011;12957;49.434;8.684;2022-10-30T15:45:51;4.57;;;2.80;;
24897;SDS011;12957;49.434;8.684;2022-10-30T15:48:30;6.03;;;2.97;;
24897;SDS011;12957;49.434;8.684;2022-10-30T15:50:59;16.25;;;3.38;;
24897;SDS011;12957;49.434;8.684;2022-10-30T15:53:29;8.50;;;2.90;;
24897;SDS011;12957;49.434;8.684;2022-10-30T15:55:57;11.63;;;3.10;;
24897;SDS011;12957;49.434;8.684;2022-10-30T15:58:25;6.03;;;3.10;;
24897;SDS011;12957;49.434;8.684;2022-10-30T16:01:00;10.13;;;2.70;;
24897;SDS011;12957;49.434;8.684;2022-10-30T16:03:32;4.82;;;2.60;;
24897;SDS011;12957;49.434;8.684;2022-10-30T16:06:13;7.00;;;2.80;;
24897;SDS011;12957;49.434;8.684;2022-10-30T16:08:44;6.97;;;2.70;;
24897;SDS011;12957;49.434;8.684;2022-10-30T16:11:11;7.30;;;2.92;;
24897;SDS011;12957;49.434;8.684;2022-10-30T16:13:42;9.82;;;3.38;;
24897;SDS011;12957;49.434;8.684;2022-10-30T16:16:20;8.25;;;3.72;;
24897;SDS011;12957;49.434;8.684;2022-10-30T16:19:03;12.52;;;3.20;;
24897;SDS011;12957;49.434;8.684;2022-10-30T16:21:44;6.65;;;2.70;;
24897;SDS011;12957;49.434;8.684;2022-10-30T16:24:18;4.28;;;2.47;;
24897;SDS011;12957;49.434;8.684;2022-10-30T16:26:59;6.05;;;2.75;;
24897;SDS011;12957;49.434;8.684;2022-10-30T16:29:26;8.55;;;2.35;;
24897;SDS011;12957;49.434;8.684;2022-10-30T16:31:52;6.90;;;2.35;;
24897;SDS011;12957;49.434;8.684;2022-10-30T16:34:20;6.63;;;2.47;;
24897;SDS011;12957;49.434;8.684;2022-10-30T16:36:55;8.18;;;2.42;;
24897;SDS011;12957;49.434;8.684;2022-10-30T16:39:21;7.65;;;2.30;;
24897;SDS011;12957;49.434;8.684;2022-10-30T16:41:46;8.63;;;2.33;;
24897;SDS011;12957;49.434;8.684;2022-10-30T16:44:24;4.40;;;2.47;;
24897;SDS011;12957;49.434;8.684;2022-10-30T16:46:55;5.07;;;2.50;;
24897;SDS011;12957;49.434;8.684;2022-10-30T16:49:23;7.15;;;1.85;;
24897;SDS011;12957;49.434;8.684;2022-10-30T16:51:54;5.90;;;2.50;;
24897;SDS011;12957;49.434;8.684;2022-10-30T16:54:26;5.43;;;2.30;;
24897;SDS011;12957;49.434;8.684;2022-10-30T16:56:54;5.93;;;2.35;;
24897;SDS011;12957;49.434;8.684;2022-10-30T16:59:27;9.02;;;3.80;;
24897;SDS011;12957;49.434;8.684;2022-10-30T17:01:56;12.90;;;4.90;;
24897;SDS011;12957;49.434;8.684;2022-10-30T17:04:24;27.42;;;12.57;;
24897;SDS011;12957;49.434;8.684;2022-10-30T17:06:51;10.40;;;4.20;;
24897;SDS011;12957;49.434;8.684;2022-10-30T17:09:28;9.82;;;3.67;;
24897;SDS011;12957;49.434;8.684;2022-10-30T17:17:23;4.60;;;2.55;;
24897;SDS011;12957;49.434;8.684;2022-10-30T17:20:46;9.40;;;4.40;;
24897;SDS011;12957;49.434;8.684;2022-10-30T17:22:44;18.40;;;11.02;;
24897;SDS011;12957;49.434;8.684;2022-10-30T17:27:59;22.10;;;12.23;;
24897;SDS011;12957;49.434;8.684;2022-10-30T17:30:45;22.95;;;11.88;;
24897;SDS011;12957;49.434;8.684;2022-10-30T17:33:29;30.13;;;18.92;;
24897;SDS011;12957;49.434;8.684;2022-10-30T17:35:58;28.88;;;17.13;;
24897;SDS011;12957;49.434;8.684;2022-10-30T17:38:23;34.45;;;20.33;;
24897;SDS011;12957;49.434;8.684;2022-10-30T17:40:49;37.05;;;18.10;;
24897;SDS011;12957;49.434;8.684;2022-10-30T17:43:14;23.00;;;11.52;;
24897;SDS011;12957;49.434;8.684;2022-10-30T17:45:43;11.48;;;4.57;;
24897;SDS011;12957;49.434;8.684;2022-10-30T17:48:10;6.95;;;3.42;;
24897;SDS011;12957;49.434;8.684;2022-10-30T17:50:40;6.03;;;2.97;;
24897;SDS011;12957;49.434;8.684;2022-10-30T17:53:08;9.15;;;3.40;;
24897;SDS011;12957;49.434;8.684;2022-10-30T17:55:38;11.15;;;3.75;;